Time;durP1;ratioP1;P1;durP2;ratioP2;P2;SDS_P1;SDS_P2;PMS_P1;PMS_P2;Temp;Humidity;BMP_temperature;BMP_pressure;BME280_temperature;BME280_humidity;BME280_pressure;Samples;Min_cycle;Max_cycle;Signal;HPM_P1;HPM_P2
2022/05/06 00:01:50;;;;;;;18.10;10.48;;;;;;;;;;4949683;28;20108;-61
2022/05/06 00:04:16;;;;;;;15.80;9.30;;;;;;;;;;4949634;28;20038;-61
2022/05/06 00:06:42;;;;;;;14.20;8.88;;;;;;;;;;4950916;28;20464;-61
2022/05/06 00:09:07;;;;;;;14.45;9.88;;;;;;;;;;4949333;28;20442;-61
2022/05/06 00:11:33;;;;;;;16.33;9.68;;;;;;;;;;4949418;28;20515;-62
2022/05/06 00:13:58;;;;;;;16.55;9.68;;;;;;;;;;4949143;28;20129;-61
2022/05/06 00:16:25;;;;;;;15.82;9.18;;;;;;;;;;4949902;28;20527;-61
2022/05/06 00:18:51;;;;;;;19.20;9.55;;;;;;;;;;4949314;28;20143;-65
2022/05/06 00:21:17;;;;;;;15.10;9.30;;;;;;;;;;4950308;28;20100;-61
2022/05/06 00:23:42;;;;;;;17.52;9.73;;;;;;;;;;4950010;28;20038;-62
2022/05/06 00:26:08;;;;;;;15.23;8.57;;;;;;;;;;4949555;28;20026;-63
2022/05/06 00:28:34;;;;;;;15.00;8.80;;;;;;;;;;4950804;28;20029;-61
2022/05/06 00:31:02;;;;;;;14.15;8.75;;;;;;;;;;4949539;28;20365;-61
2022/05/06 00:33:29;;;;;;;12.52;8.50;;;;;;;;;;4950195;28;20449;-61
2022/05/06 00:35:54;;;;;;;18.23;9.27;;;;;;;;;;4949268;28;20040;-61
2022/05/06 00:38:20;;;;;;;16.63;9.68;;;;;;;;;;4950125;28;20429;-61
2022/05/06 00:40:46;;;;;;;14.40;8.65;;;;;;;;;;4949166;28;20473;-61
2022/05/06 00:43:12;;;;;;;16.30;9.20;;;;;;;;;;4949343;28;21201;-61
2022/05/06 00:45:47;;;;;;;15.73;8.63;;;;;;;;;;4950333;28;20082;-62
2022/05/06 00:48:13;;;;;;;16.25;9.07;;;;;;;;;;4952927;28;20033;-61
2022/05/06 00:50:38;;;;;;;11.30;7.47;;;;;;;;;;4953163;28;20444;-61
2022/05/06 00:53:06;;;;;;;14.27;8.75;;;;;;;;;;4935338;28;20497;-62
2022/05/06 00:55:33;;;;;;;11.95;8.05;;;;;;;;;;4952237;28;20445;-62
2022/05/06 00:57:58;;;;;;;17.83;8.93;;;;;;;;;;4953365;28;20353;-61
2022/05/06 01:00:23;;;;;;;13.02;7.65;;;;;;;;;;4950996;28;20353;-61
2022/05/06 01:02:49;;;;;;;11.52;8.23;;;;;;;;;;4952211;28;20525;-62
2022/05/06 01:05:14;;;;;;;12.52;7.60;;;;;;;;;;4954724;28;20480;-63
2022/05/06 01:07:41;;;;;;;12.60;7.78;;;;;;;;;;4952618;28;20030;-61
2022/05/06 01:10:06;;;;;;;14.10;7.80;;;;;;;;;;4953074;28;20440;-62
2022/05/06 01:12:32;;;;;;;13.27;8.18;;;;;;;;;;4953799;28;20437;-61
2022/05/06 01:14:57;;;;;;;14.20;8.25;;;;;;;;;;4952157;28;20442;-62
2022/05/06 01:17:23;;;;;;;16.00;8.15;;;;;;;;;;4953038;28;20417;-61
2022/05/06 01:19:50;;;;;;;12.25;7.50;;;;;;;;;;4953508;28;20441;-65
2022/05/06 01:22:17;;;;;;;14.80;7.90;;;;;;;;;;4954537;28;20445;-61
2022/05/06 01:24:42;;;;;;;12.13;7.03;;;;;;;;;;4951938;28;20426;-61
2022/05/06 01:27:23;;;;;;;14.13;7.25;;;;;;;;;;4952503;28;20434;-62
2022/05/06 01:29:51;;;;;;;11.50;7.00;;;;;;;;;;4952050;28;20318;-62
2022/05/06 01:32:18;;;;;;;11.40;6.70;;;;;;;;;;4952380;28;20377;-61
2022/05/06 01:34:44;;;;;;;10.10;6.85;;;;;;;;;;4952153;28;20048;-62
2022/05/06 01:37:11;;;;;;;15.00;7.25;;;;;;;;;;4953052;28;20334;-62
2022/05/06 01:39:37;;;;;;;12.93;7.03;;;;;;;;;;4934449;28;20320;-61
2022/05/06 01:42:05;;;;;;;12.40;7.18;;;;;;;;;;4952300;28;20421;-62
2022/05/06 01:44:35;;;;;;;10.70;7.25;;;;;;;;;;4952324;28;20438;-61
2022/05/06 01:47:03;;;;;;;12.65;7.07;;;;;;;;;;4952666;28;20341;-61
2022/05/06 01:49:30;;;;;;;11.60;6.95;;;;;;;;;;4952005;28;20038;-62
2022/05/06 01:51:56;;;;;;;12.93;7.13;;;;;;;;;;4952192;28;20450;-61
2022/05/06 01:54:21;;;;;;;10.98;6.88;;;;;;;;;;4934168;28;20136;-61
2022/05/06 01:56:46;;;;;;;11.75;6.85;;;;;;;;;;4951389;28;20355;-62
2022/05/06 01:59:12;;;;;;;12.00;7.47;;;;;;;;;;4951942;28;20416;-61
2022/05/06 02:01:37;;;;;;;13.32;6.22;;;;;;;;;;4951586;28;20061;-61
2022/05/06 02:06:47;;;;;;;12.25;7.22;;;;;;;;;;4952928;28;20492;-61
2022/05/06 02:09:12;;;;;;;11.05;6.35;;;;;;;;;;4952072;28;20404;-61
2022/05/06 02:11:37;;;;;;;11.50;6.72;;;;;;;;;;4951493;28;20438;-61
2022/05/06 02:14:03;;;;;;;11.23;6.13;;;;;;;;;;4951146;28;20064;-62
2022/05/06 02:16:29;;;;;;;10.88;6.80;;;;;;;;;;4951132;28;20413;-62
2022/05/06 02:18:54;;;;;;;12.27;6.63;;;;;;;;;;4952736;28;20413;-61
2022/05/06 02:21:20;;;;;;;11.15;6.50;;;;;;;;;;4952716;28;20397;-61
2022/05/06 02:23:45;;;;;;;10.77;6.40;;;;;;;;;;4952129;28;20507;-62
2022/05/06 02:26:10;;;;;;;8.70;6.40;;;;;;;;;;4951784;28;20403;-61
2022/05/06 02:28:36;;;;;;;11.02;6.03;;;;;;;;;;4951776;28;20052;-63
2022/05/06 02:33:45;;;;;;;10.63;6.30;;;;;;;;;;4950922;28;20433;-61
2022/05/06 02:36:11;;;;;;;9.05;5.78;;;;;;;;;;4951536;28;20090;-61
2022/05/06 02:38:36;;;;;;;10.35;5.90;;;;;;;;;;4952205;28;20434;-61
2022/05/06 02:41:03;;;;;;;7.28;5.18;;;;;;;;;;4952090;28;20488;-61
2022/05/06 02:43:28;;;;;;;9.57;5.70;;;;;;;;;;4950890;28;20361;-61
2022/05/06 02:45:53;;;;;;;9.05;5.45;;;;;;;;;;4951097;28;20393;-62
2022/05/06 02:48:19;;;;;;;9.57;6.65;;;;;;;;;;4950856;28;20429;-61
2022/05/06 02:50:44;;;;;;;10.35;5.68;;;;;;;;;;4951382;28;20030;-61
2022/05/06 02:53:10;;;;;;;10.57;6.05;;;;;;;;;;4951407;28;20048;-62
2022/05/06 02:55:35;;;;;;;10.27;5.70;;;;;;;;;;4950830;28;20349;-61
2022/05/06 02:58:01;;;;;;;10.93;6.55;;;;;;;;;;4933006;28;20492;-62
2022/05/06 03:00:28;;;;;;;8.57;5.53;;;;;;;;;;4950711;28;20389;-62
2022/05/06 03:02:55;;;;;;;10.35;6.10;;;;;;;;;;4952228;28;20494;-62
2022/05/06 03:05:20;;;;;;;10.57;6.00;;;;;;;;;;4950935;28;20457;-62
2022/05/06 03:07:45;;;;;;;9.30;5.53;;;;;;;;;;4950056;28;20330;-61
2022/05/06 03:10:11;;;;;;;8.18;5.60;;;;;;;;;;4950371;28;20390;-62
2022/05/06 03:12:37;;;;;;;8.57;5.47;;;;;;;;;;4950573;28;20453;-61
2022/05/06 03:15:03;;;;;;;9.73;6.00;;;;;;;;;;4949774;28;20417;-62
2022/05/06 03:17:30;;;;;;;8.75;5.25;;;;;;;;;;4950947;28;20433;-61
2022/05/06 03:19:56;;;;;;;10.10;5.80;;;;;;;;;;4951434;28;20052;-62
2022/05/06 03:22:21;;;;;;;7.43;4.88;;;;;;;;;;4950405;28;20046;-61
2022/05/06 03:24:47;;;;;;;8.98;5.00;;;;;;;;;;4951779;28;20425;-62
2022/05/06 03:29:57;;;;;;;9.82;5.63;;;;;;;;;;4951391;28;20057;-62
2022/05/06 03:32:22;;;;;;;10.23;5.97;;;;;;;;;;4950925;28;20041;-62
2022/05/06 03:34:49;;;;;;;7.85;4.80;;;;;;;;;;4950273;28;20500;-62
2022/05/06 03:37:15;;;;;;;8.52;5.45;;;;;;;;;;4951001;28;20338;-63
2022/05/06 03:39:40;;;;;;;8.95;5.85;;;;;;;;;;4932188;28;20466;-61
2022/05/06 03:42:06;;;;;;;9.95;5.13;;;;;;;;;;4951205;28;20514;-61
2022/05/06 03:44:31;;;;;;;6.18;4.78;;;;;;;;;;4950473;28;20401;-62
2022/05/06 03:46:56;;;;;;;8.05;4.93;;;;;;;;;;4950553;28;20307;-61
2022/05/06 03:49:22;;;;;;;7.75;4.95;;;;;;;;;;4949784;28;20172;-61
2022/05/06 03:51:47;;;;;;;7.13;4.55;;;;;;;;;;4949971;28;20030;-61
2022/05/06 03:54:13;;;;;;;7.57;4.80;;;;;;;;;;4932426;28;20362;-61
2022/05/06 03:56:38;;;;;;;6.43;4.43;;;;;;;;;;4949915;28;20350;-62
2022/05/06 03:59:03;;;;;;;8.77;5.28;;;;;;;;;;4950004;28;20356;-61
2022/05/06 04:01:28;;;;;;;7.57;4.95;;;;;;;;;;4951233;28;20443;-61
2022/05/06 04:03:54;;;;;;;7.00;4.20;;;;;;;;;;4949676;28;20425;-61
2022/05/06 04:06:20;;;;;;;8.75;5.45;;;;;;;;;;4950233;28;20456;-61
2022/05/06 04:08:45;;;;;;;6.40;4.68;;;;;;;;;;4949692;28;20323;-61
2022/05/06 04:11:11;;;;;;;8.20;4.30;;;;;;;;;;4949831;28;20052;-61
2022/05/06 04:13:37;;;;;;;8.60;5.35;;;;;;;;;;4948921;28;20396;-61
2022/05/06 04:16:02;;;;;;;8.15;4.97;;;;;;;;;;4950445;28;20444;-62
2022/05/06 04:18:28;;;;;;;7.45;4.78;;;;;;;;;;4950028;28;20500;-62
2022/05/06 04:23:38;;;;;;;7.70;4.63;;;;;;;;;;4953746;28;20426;-61
2022/05/06 04:26:07;;;;;;;9.15;5.07;;;;;;;;;;4954558;28;20357;-62
2022/05/06 04:28:34;;;;;;;6.63;4.75;;;;;;;;;;4954054;28;20317;-61
2022/05/06 04:31:00;;;;;;;6.85;4.40;;;;;;;;;;4953304;28;20445;-61
2022/05/06 04:33:26;;;;;;;7.28;4.88;;;;;;;;;;4953491;28;20112;-62
2022/05/06 04:35:53;;;;;;;7.50;4.57;;;;;;;;;;4936080;28;20405;-62
2022/05/06 04:38:19;;;;;;;8.70;5.18;;;;;;;;;;4953344;28;20044;-61
2022/05/06 04:40:44;;;;;;;9.05;5.35;;;;;;;;;;4953151;28;20026;-62
2022/05/06 04:43:10;;;;;;;7.13;4.88;;;;;;;;;;4953130;28;20449;-62
2022/05/06 04:45:37;;;;;;;8.23;4.95;;;;;;;;;;4953601;28;20033;-61
2022/05/06 04:48:02;;;;;;;8.52;5.63;;;;;;;;;;4953890;28;20434;-61
2022/05/06 04:50:27;;;;;;;8.88;5.30;;;;;;;;;;4953077;28;20483;-62
2022/05/06 04:52:53;;;;;;;9.48;5.30;;;;;;;;;;4952987;28;20053;-61
2022/05/06 04:55:18;;;;;;;8.27;5.45;;;;;;;;;;4953324;28;20344;-62
2022/05/06 04:57:44;;;;;;;10.02;5.38;;;;;;;;;;4953120;28;20484;-61
2022/05/06 05:00:09;;;;;;;7.68;4.90;;;;;;;;;;4935589;28;20429;-61
2022/05/06 05:02:34;;;;;;;9.43;5.20;;;;;;;;;;4953267;28;20451;-61
2022/05/06 05:05:00;;;;;;;8.63;5.78;;;;;;;;;;4952788;28;20425;-61
2022/05/06 05:07:25;;;;;;;11.45;6.20;;;;;;;;;;4952787;28;20394;-61
2022/05/06 05:09:51;;;;;;;7.55;5.20;;;;;;;;;;4952966;28;20428;-62
2022/05/06 05:12:16;;;;;;;8.43;5.32;;;;;;;;;;4952848;28;20382;-61
2022/05/06 05:14:42;;;;;;;7.95;5.32;;;;;;;;;;4952325;28;20425;-62
2022/05/06 05:17:11;;;;;;;7.25;4.43;;;;;;;;;;4953297;28;20060;-62
2022/05/06 05:19:37;;;;;;;9.80;5.45;;;;;;;;;;4953375;28;20500;-62
2022/05/06 05:22:03;;;;;;;9.55;5.35;;;;;;;;;;4953450;28;20433;-62
2022/05/06 05:24:28;;;;;;;7.55;4.80;;;;;;;;;;4952666;28;20030;-62
2022/05/06 05:26:54;;;;;;;9.05;5.55;;;;;;;;;;4952454;28;20056;-62
2022/05/06 05:29:19;;;;;;;9.68;6.25;;;;;;;;;;4952757;28;20505;-62
2022/05/06 05:31:45;;;;;;;8.45;5.38;;;;;;;;;;4952479;28;20337;-62
2022/05/06 05:34:10;;;;;;;10.30;6.10;;;;;;;;;;4952790;28;20445;-62
2022/05/06 05:36:35;;;;;;;9.60;5.43;;;;;;;;;;4952041;28;20410;-61
2022/05/06 05:39:00;;;;;;;8.77;5.63;;;;;;;;;;4953502;28;20413;-62
2022/05/06 05:41:26;;;;;;;8.70;5.90;;;;;;;;;;4951756;28;20323;-61
2022/05/06 05:49:19;;;;;;;9.55;4.95;;;;;;;;;;4952410;28;20390;-61
2022/05/06 05:51:44;;;;;;;8.50;5.20;;;;;;;;;;4951845;28;20424;-61
2022/05/06 05:54:09;;;;;;;6.75;4.60;;;;;;;;;;4952252;28;20488;-62
2022/05/06 05:56:35;;;;;;;7.70;5.18;;;;;;;;;;4953428;28;20548;-61
2022/05/06 05:59:00;;;;;;;9.32;5.93;;;;;;;;;;4951899;28;20433;-61
2022/05/06 06:01:25;;;;;;;7.40;4.65;;;;;;;;;;4951685;28;20500;-61
2022/05/06 06:03:51;;;;;;;7.30;4.75;;;;;;;;;;4952105;28;20052;-61
2022/05/06 06:06:16;;;;;;;7.68;4.65;;;;;;;;;;4951387;28;20512;-61
2022/05/06 06:08:41;;;;;;;8.38;5.47;;;;;;;;;;4953255;28;20413;-61
2022/05/06 06:11:06;;;;;;;8.95;4.88;;;;;;;;;;4951248;28;20523;-62
2022/05/06 06:13:32;;;;;;;9.98;4.90;;;;;;;;;;4952188;28;21182;-62
2022/05/06 06:15:57;;;;;;;7.45;4.70;;;;;;;;;;4951202;28;20423;-62
2022/05/06 06:18:26;;;;;;;7.32;4.80;;;;;;;;;;4951442;28;20426;-61
2022/05/06 06:20:56;;;;;;;8.45;4.18;;;;;;;;;;4951266;28;20453;-61
2022/05/06 06:23:21;;;;;;;6.25;4.32;;;;;;;;;;4951119;28;20065;-61
2022/05/06 06:25:46;;;;;;;7.68;4.70;;;;;;;;;;4951968;28;20038;-62
2022/05/06 06:28:12;;;;;;;8.02;4.65;;;;;;;;;;4951317;28;20349;-61
2022/05/06 06:30:37;;;;;;;9.00;5.50;;;;;;;;;;4951383;28;20464;-61
2022/05/06 06:33:03;;;;;;;7.30;4.97;;;;;;;;;;4951844;28;20034;-62
2022/05/06 06:35:28;;;;;;;6.72;4.30;;;;;;;;;;4951131;28;20441;-61
2022/05/06 06:37:54;;;;;;;7.35;4.88;;;;;;;;;;4951218;28;20409;-61
2022/05/06 06:40:19;;;;;;;5.88;3.88;;;;;;;;;;4951045;28;20405;-62
2022/05/06 06:42:45;;;;;;;8.35;4.22;;;;;;;;;;4952039;28;20049;-61
2022/05/06 06:45:11;;;;;;;7.18;4.13;;;;;;;;;;4951433;28;20339;-61
2022/05/06 06:47:37;;;;;;;7.43;4.97;;;;;;;;;;4951933;28;20399;-61
2022/05/06 06:50:03;;;;;;;7.50;5.35;;;;;;;;;;4950672;28;20048;-62
2022/05/06 06:52:28;;;;;;;7.38;4.30;;;;;;;;;;4950904;28;20441;-62
2022/05/06 06:54:53;;;;;;;8.55;4.63;;;;;;;;;;4951452;28;20341;-61
2022/05/06 06:57:19;;;;;;;7.15;4.45;;;;;;;;;;4950849;28;20449;-62
2022/05/06 06:59:44;;;;;;;7.05;4.75;;;;;;;;;;4952515;28;20321;-62
2022/05/06 07:02:09;;;;;;;8.95;5.47;;;;;;;;;;4950944;28;20460;-61
2022/05/06 07:04:35;;;;;;;7.70;4.68;;;;;;;;;;4950542;28;20464;-62
2022/05/06 07:12:28;;;;;;;8.50;5.55;;;;;;;;;;4950772;28;20460;-62
2022/05/06 07:14:55;;;;;;;7.38;4.93;;;;;;;;;;4950354;28;20457;-61
2022/05/06 07:17:20;;;;;;;8.48;5.07;;;;;;;;;;4950554;28;20448;-62
2022/05/06 07:19:45;;;;;;;7.60;5.10;;;;;;;;;;4950874;28;20333;-62
2022/05/06 07:22:11;;;;;;;6.20;4.22;;;;;;;;;;4950136;28;20377;-61
2022/05/06 07:24:36;;;;;;;8.82;4.70;;;;;;;;;;4950164;28;20430;-62
2022/05/06 07:27:02;;;;;;;11.52;5.70;;;;;;;;;;4950512;28;20048;-61
2022/05/06 07:29:27;;;;;;;8.25;4.82;;;;;;;;;;4950389;28;20022;-62
2022/05/06 07:31:52;;;;;;;9.48;5.25;;;;;;;;;;4950732;28;20104;-62
2022/05/06 07:34:18;;;;;;;8.13;4.78;;;;;;;;;;4950458;28;20487;-62
2022/05/06 07:36:43;;;;;;;8.05;4.57;;;;;;;;;;4950298;28;20369;-61
2022/05/06 07:39:10;;;;;;;12.30;5.50;;;;;;;;;;4950149;28;20531;-63
2022/05/06 07:41:36;;;;;;;7.95;5.13;;;;;;;;;;4950391;28;20569;-62
2022/05/06 07:44:01;;;;;;;11.07;5.45;;;;;;;;;;4951104;28;20340;-62
2022/05/06 07:46:26;;;;;;;9.50;5.65;;;;;;;;;;4950075;28;20392;-61
2022/05/06 07:48:52;;;;;;;8.27;5.05;;;;;;;;;;4950787;28;20302;-62
2022/05/06 07:51:17;;;;;;;7.28;5.00;;;;;;;;;;4950291;28;20048;-61
2022/05/06 07:53:43;;;;;;;9.35;4.30;;;;;;;;;;4950110;28;20401;-62
2022/05/06 07:56:08;;;;;;;8.38;4.82;;;;;;;;;;4949815;28;20333;-62
2022/05/06 07:58:35;;;;;;;7.65;4.75;;;;;;;;;;4949768;28;20453;-61
2022/05/06 08:01:00;;;;;;;7.07;4.78;;;;;;;;;;4950144;28;20327;-62
2022/05/06 08:06:09;;;;;;;7.28;4.70;;;;;;;;;;4949161;28;20467;-62
2022/05/06 08:08:35;;;;;;;8.95;5.28;;;;;;;;;;4948919;28;20349;-62
2022/05/06 08:11:01;;;;;;;9.27;5.05;;;;;;;;;;4949416;28;20309;-61
2022/05/06 08:13:26;;;;;;;10.30;6.00;;;;;;;;;;4947475;28;20389;-62
2022/05/06 08:15:52;;;;;;;11.40;5.65;;;;;;;;;;4949424;28;20446;-62
2022/05/06 08:18:18;;;;;;;7.93;5.40;;;;;;;;;;4949971;28;20337;-62
2022/05/06 08:20:43;;;;;;;8.70;5.38;;;;;;;;;;4949930;28;20358;-61
2022/05/06 08:23:09;;;;;;;9.82;5.78;;;;;;;;;;4949448;28;20052;-61
2022/05/06 08:25:34;;;;;;;8.57;4.70;;;;;;;;;;4949372;28;20457;-62
2022/05/06 08:28:00;;;;;;;7.80;4.65;;;;;;;;;;4950003;28;20318;-62
2022/05/06 08:30:25;;;;;;;9.18;5.50;;;;;;;;;;4949157;28;20362;-61
2022/05/06 08:32:51;;;;;;;9.57;5.35;;;;;;;;;;4949492;28;20061;-62
2022/05/06 08:35:17;;;;;;;9.43;5.28;;;;;;;;;;4949385;28;20516;-64
2022/05/06 08:37:47;;;;;;;7.18;4.65;;;;;;;;;;4949131;28;20392;-61
2022/05/06 08:40:17;;;;;;;6.78;4.93;;;;;;;;;;4950308;28;20332;-61
2022/05/06 08:42:42;;;;;;;10.20;4.82;;;;;;;;;;4948904;28;20376;-62
2022/05/06 08:50:51;;;;;;;7.13;4.45;;;;;;;;;;4950352;28;20349;-62
2022/05/06 08:53:17;;;;;;;7.63;5.40;;;;;;;;;;4933339;28;20453;-62
2022/05/06 08:55:42;;;;;;;7.03;4.35;;;;;;;;;;4950082;28;20484;-61
2022/05/06 08:58:08;;;;;;;9.63;5.43;;;;;;;;;;4949287;28;20338;-61
2022/05/06 09:00:33;;;;;;;7.88;5.50;;;;;;;;;;4948246;28;20386;-61
2022/05/06 09:02:58;;;;;;;7.72;4.60;;;;;;;;;;4949275;28;20042;-63
2022/05/06 09:05:24;;;;;;;8.75;5.30;;;;;;;;;;4950376;28;20426;-62
2022/05/06 09:07:57;;;;;;;7.25;4.40;;;;;;;;;;4952376;28;20057;-61
2022/05/06 09:10:23;;;;;;;6.65;4.78;;;;;;;;;;4952772;28;20433;-62
2022/05/06 09:12:52;;;;;;;7.60;4.35;;;;;;;;;;4953834;28;20480;-61
2022/05/06 09:18:04;;;;;;;9.82;4.97;;;;;;;;;;4954177;28;20413;-62
2022/05/06 09:20:29;;;;;;;7.85;4.38;;;;;;;;;;4952615;28;20449;-61
2022/05/06 09:22:55;;;;;;;8.65;5.00;;;;;;;;;;4952750;28;20407;-62
2022/05/06 09:25:37;;;;;;;7.55;4.55;;;;;;;;;;4952661;28;20441;-62
2022/05/06 09:28:03;;;;;;;8.45;4.50;;;;;;;;;;4951998;28;20492;-62
2022/05/06 09:30:29;;;;;;;6.35;4.45;;;;;;;;;;4952844;28;20377;-62
2022/05/06 09:32:54;;;;;;;6.90;4.22;;;;;;;;;;4934503;28;20497;-62
2022/05/06 09:35:20;;;;;;;9.05;5.45;;;;;;;;;;4953413;28;20464;-61
2022/05/06 09:37:47;;;;;;;7.03;4.50;;;;;;;;;;4952472;28;20572;-62
2022/05/06 09:40:20;;;;;;;7.80;4.88;;;;;;;;;;4952979;28;20349;-62
2022/05/06 09:43:06;;;;;;;9.20;4.90;;;;;;;;;;4952081;28;20488;-61
2022/05/06 09:45:37;;;;;;;8.05;4.60;;;;;;;;;;4939894;28;20389;-61
2022/05/06 09:48:04;;;;;;;8.23;4.40;;;;;;;;;;4952043;28;20026;-62
2022/05/06 09:50:32;;;;;;;8.38;4.50;;;;;;;;;;4953677;28;20419;-61
2022/05/06 09:53:01;;;;;;;12.00;4.90;;;;;;;;;;4952120;28;20457;-62
2022/05/06 09:55:28;;;;;;;6.97;4.35;;;;;;;;;;4952036;28;20401;-62
2022/05/06 09:57:55;;;;;;;6.75;4.25;;;;;;;;;;4952371;28;20524;-62
2022/05/06 10:00:21;;;;;;;10.30;4.70;;;;;;;;;;4951699;28;20357;-62
2022/05/06 10:02:46;;;;;;;10.20;4.68;;;;;;;;;;4934107;28;20376;-62
2022/05/06 10:05:11;;;;;;;8.43;4.55;;;;;;;;;;4952024;28;20336;-62
2022/05/06 10:07:40;;;;;;;6.47;4.43;;;;;;;;;;4951638;28;20385;-63
2022/05/06 10:10:06;;;;;;;;;;;;;;;;;;4952612;28;20397;-62
2022/05/06 10:12:40;;;;;;;6.90;4.22;;;;;;;;;;4951726;28;20312;-62
2022/05/06 10:15:08;;;;;;;6.47;4.32;;;;;;;;;;4951424;28;20057;-63
2022/05/06 10:17:57;;;;;;;7.53;4.22;;;;;;;;;;4951693;28;20444;-62
2022/05/06 10:20:34;;;;;;;7.70;4.07;;;;;;;;;;4951378;28;20026;-62
2022/05/06 10:23:01;;;;;;;7.05;4.53;;;;;;;;;;4951536;28;20419;-63
2022/05/06 10:25:42;;;;;;;8.05;4.25;;;;;;;;;;4951399;28;20454;-62
2022/05/06 10:34:08;;;;;;;6.93;4.35;;;;;;;;;;4951736;28;20140;-62
2022/05/06 10:36:43;;;;;;;7.82;3.75;;;;;;;;;;4951447;28;20484;-62
2022/05/06 10:39:23;;;;;;;9.90;5.07;;;;;;;;;;4952236;28;20319;-64
2022/05/06 10:42:15;;;;;;;7.55;3.92;;;;;;;;;;4951047;28;20528;-63
2022/05/06 10:44:48;;;;;;;6.57;3.80;;;;;;;;;;4950855;28;20037;-62
2022/05/06 10:47:13;;;;;;;7.22;4.78;;;;;;;;;;4950988;28;20030;-62
2022/05/06 10:49:38;;;;;;;6.43;4.13;;;;;;;;;;4951150;28;20460;-63
2022/05/06 10:52:16;;;;;;;6.53;3.58;;;;;;;;;;4950496;28;20457;-63
2022/05/06 10:54:48;;;;;;;6.90;3.85;;;;;;;;;;4950702;28;20029;-63
2022/05/06 10:57:20;;;;;;;6.25;3.80;;;;;;;;;;4950485;28;20361;-62
2022/05/06 10:59:48;;;;;;;6.75;4.32;;;;;;;;;;4951707;28;20401;-62
2022/05/06 11:02:14;;;;;;;6.07;3.97;;;;;;;;;;4951698;28;20457;-62
2022/05/06 11:04:43;;;;;;;9.07;4.53;;;;;;;;;;4951253;28;20553;-62
2022/05/06 11:07:12;;;;;;;6.78;4.15;;;;;;;;;;4934065;28;20452;-62
2022/05/06 11:09:38;;;;;;;7.60;4.03;;;;;;;;;;4950663;28;20457;-62
2022/05/06 11:12:03;;;;;;;7.15;4.35;;;;;;;;;;4950574;28;20480;-63
2022/05/06 11:14:29;;;;;;;7.25;4.25;;;;;;;;;;4933342;28;20073;-62
2022/05/06 11:17:13;;;;;;;6.45;3.63;;;;;;;;;;4950608;28;20505;-62
2022/05/06 11:19:38;;;;;;;5.95;3.70;;;;;;;;;;4950566;28;20449;-62
2022/05/06 11:22:07;;;;;;;7.35;4.25;;;;;;;;;;4950376;28;20480;-63
2022/05/06 11:24:33;;;;;;;;;;;;;;;;;;4951614;28;20056;-65
2022/05/06 11:27:15;;;;;;;5.70;3.83;;;;;;;;;;4950744;28;19913;-62
2022/05/06 11:29:55;;;;;;;7.05;4.15;;;;;;;;;;4950550;28;20298;-63
2022/05/06 11:32:28;;;;;;;7.00;3.92;;;;;;;;;;4950223;28;20127;-62
2022/05/06 11:35:11;;;;;;;5.38;3.83;;;;;;;;;;4950237;28;20539;-63
2022/05/06 11:37:40;;;;;;;5.40;3.58;;;;;;;;;;4949749;28;20366;-62
2022/05/06 11:40:32;;;;;;;6.20;3.75;;;;;;;;;;4932578;28;20330;-63
2022/05/06 11:43:21;;;;;;;5.93;3.90;;;;;;;;;;4950108;28;20473;-62
2022/05/06 11:48:40;;;;;;;6.22;3.70;;;;;;;;;;4951055;28;20369;-63
2022/05/06 11:51:06;;;;;;;6.13;3.70;;;;;;;;;;4949956;28;20325;-64
2022/05/06 11:53:31;;;;;;;5.72;3.85;;;;;;;;;;4950047;28;20357;-63
2022/05/06 11:55:57;;;;;;;5.90;3.70;;;;;;;;;;4950013;28;20388;-63
2022/05/06 11:58:23;;;;;;;5.45;3.47;;;;;;;;;;4932370;28;20365;-64
2022/05/06 12:00:50;;;;;;;6.00;3.92;;;;;;;;;;4949568;28;20472;-63
2022/05/06 12:03:15;;;;;;;5.32;4.10;;;;;;;;;;4932417;28;20476;-62
2022/05/06 12:05:41;;;;;;;8.30;3.60;;;;;;;;;;4949610;28;20352;-64
2022/05/06 12:08:07;;;;;;;7.78;3.90;;;;;;;;;;4950222;28;20345;-64
2022/05/06 12:10:37;;;;;;;5.55;3.72;;;;;;;;;;4949637;28;20432;-63
2022/05/06 12:13:07;;;;;;;6.32;3.58;;;;;;;;;;4950246;28;20425;-63
2022/05/06 12:15:39;;;;;;;5.40;3.65;;;;;;;;;;4949072;28;20073;-63
2022/05/06 12:18:10;;;;;;;3.70;3.08;;;;;;;;;;4950259;28;20430;-63
2022/05/06 12:20:36;;;;;;;6.18;3.80;;;;;;;;;;4949817;28;20030;-63
2022/05/06 12:23:03;;;;;;;5.63;3.88;;;;;;;;;;4949472;28;20060;-63
2022/05/06 12:25:29;;;;;;;7.72;4.10;;;;;;;;;;4949522;28;20418;-63
2022/05/06 12:28:07;;;;;;;5.47;3.15;;;;;;;;;;4951139;28;20105;-64
2022/05/06 12:30:33;;;;;;;5.07;3.35;;;;;;;;;;4949978;28;20484;-63
2022/05/06 12:33:17;;;;;;;5.22;3.63;;;;;;;;;;4949477;28;20337;-62
2022/05/06 12:36:04;;;;;;;5.65;3.75;;;;;;;;;;4950788;28;20034;-63
2022/05/06 12:38:38;;;;;;;6.20;3.60;;;;;;;;;;4949854;28;20357;-64
2022/05/06 12:41:16;;;;;;;6.03;3.65;;;;;;;;;;4950197;28;20322;-63
2022/05/06 12:43:41;;;;;;;6.93;3.58;;;;;;;;;;4953493;28;20459;-65
2022/05/06 12:46:06;;;;;;;5.13;3.17;;;;;;;;;;4953613;28;20733;-62
2022/05/06 12:51:15;;;;;;;4.35;3.55;;;;;;;;;;4953327;28;20137;-63
2022/05/06 12:53:41;;;;;;;5.72;3.80;;;;;;;;;;4953599;28;20033;-63
2022/05/06 12:56:16;;;;;;;7.28;3.72;;;;;;;;;;4953100;28;20438;-64
2022/05/06 12:58:42;;;;;;;5.43;3.20;;;;;;;;;;4953007;28;20381;-63
2022/05/06 13:01:07;;;;;;;5.28;3.70;;;;;;;;;;4953861;28;20459;-63
2022/05/06 13:03:32;;;;;;;7.03;3.25;;;;;;;;;;4952658;28;20439;-64
2022/05/06 13:05:58;;;;;;;5.68;3.47;;;;;;;;;;4953189;28;20022;-63
2022/05/06 13:08:24;;;;;;;4.65;3.45;;;;;;;;;;4952991;28;20413;-62
2022/05/06 13:10:50;;;;;;;4.63;2.97;;;;;;;;;;4952940;28;20393;-63
2022/05/06 13:13:15;;;;;;;4.88;3.22;;;;;;;;;;4952949;28;20349;-63
2022/05/06 13:15:41;;;;;;;5.18;3.53;;;;;;;;;;4952634;28;20430;-63
2022/05/06 13:18:07;;;;;;;5.47;3.60;;;;;;;;;;4952915;28;20030;-62
2022/05/06 13:20:32;;;;;;;5.68;3.65;;;;;;;;;;4952402;28;20052;-62
2022/05/06 13:22:59;;;;;;;5.68;3.63;;;;;;;;;;4952406;28;20405;-64
2022/05/06 13:25:24;;;;;;;5.72;3.42;;;;;;;;;;4952363;28;20461;-63
2022/05/06 13:27:50;;;;;;;4.90;3.03;;;;;;;;;;4934765;28;20445;-63
2022/05/06 13:30:15;;;;;;;5.57;3.33;;;;;;;;;;4952512;28;20468;-63
2022/05/06 13:32:40;;;;;;;4.25;3.13;;;;;;;;;;4953019;28;20048;-64
2022/05/06 13:35:06;;;;;;;5.03;2.90;;;;;;;;;;4952713;28;20478;-62
2022/05/06 13:37:31;;;;;;;5.50;3.38;;;;;;;;;;4952365;28;20113;-63
2022/05/06 13:39:57;;;;;;;4.57;3.10;;;;;;;;;;4952155;28;20340;-63
2022/05/06 13:42:22;;;;;;;5.35;3.25;;;;;;;;;;4953009;28;20402;-62
2022/05/06 13:44:47;;;;;;;4.00;3.05;;;;;;;;;;4951924;28;20341;-63
2022/05/06 13:47:16;;;;;;;7.53;3.67;;;;;;;;;;4952067;28;20464;-63
2022/05/06 13:49:43;;;;;;;5.32;3.58;;;;;;;;;;4952223;28;20517;-63
2022/05/06 13:52:09;;;;;;;4.18;3.20;;;;;;;;;;4953052;28;20376;-63
2022/05/06 13:54:34;;;;;;;5.28;3.65;;;;;;;;;;4952311;28;20386;-63
2022/05/06 13:59:43;;;;;;;5.25;3.42;;;;;;;;;;4952855;28;20491;-63
2022/05/06 14:02:09;;;;;;;5.38;3.38;;;;;;;;;;4951730;28;20484;-62
2022/05/06 14:04:35;;;;;;;5.35;3.38;;;;;;;;;;4951838;28;20459;-62
2022/05/06 14:07:01;;;;;;;4.97;3.47;;;;;;;;;;4952030;28;20317;-63
2022/05/06 14:09:26;;;;;;;4.90;3.08;;;;;;;;;;4951639;28;20353;-63
2022/05/06 14:11:51;;;;;;;4.28;3.30;;;;;;;;;;4951985;28;20368;-63
2022/05/06 14:14:17;;;;;;;4.40;3.33;;;;;;;;;;4952502;28;20487;-63
2022/05/06 14:16:42;;;;;;;5.25;3.05;;;;;;;;;;4951630;28;20376;-63
2022/05/06 14:19:08;;;;;;;4.05;2.92;;;;;;;;;;4951929;28;20334;-63
2022/05/06 14:21:33;;;;;;;6.13;3.60;;;;;;;;;;4951517;28;20442;-62
2022/05/06 14:23:59;;;;;;;4.47;3.03;;;;;;;;;;4951400;28;20433;-62
2022/05/06 14:26:24;;;;;;;4.60;3.55;;;;;;;;;;4951329;28;20386;-63
2022/05/06 14:28:50;;;;;;;5.43;3.70;;;;;;;;;;4952471;28;20524;-62
2022/05/06 14:31:16;;;;;;;5.95;3.45;;;;;;;;;;4951455;28;20441;-63
2022/05/06 14:33:41;;;;;;;5.45;3.25;;;;;;;;;;4951367;28;20471;-63
2022/05/06 14:36:06;;;;;;;5.35;3.67;;;;;;;;;;4950981;28;20034;-63
2022/05/06 14:38:31;;;;;;;4.25;3.13;;;;;;;;;;4951738;28;20364;-63
2022/05/06 14:40:57;;;;;;;5.22;3.38;;;;;;;;;;4951254;28;20338;-64
2022/05/06 14:43:23;;;;;;;5.80;3.90;;;;;;;;;;4951260;28;20471;-63
2022/05/06 14:45:49;;;;;;;4.68;3.22;;;;;;;;;;4950993;28;20026;-64
2022/05/06 14:48:15;;;;;;;4.10;3.42;;;;;;;;;;4951594;28;20504;-63
2022/05/06 14:50:41;;;;;;;4.13;3.20;;;;;;;;;;4951860;28;20473;-63
2022/05/06 14:53:06;;;;;;;3.58;2.75;;;;;;;;;;4950793;28;20517;-64
2022/05/06 14:55:32;;;;;;;5.75;3.60;;;;;;;;;;4950795;28;20333;-63
2022/05/06 14:57:57;;;;;;;6.03;3.20;;;;;;;;;;4951674;28;20341;-63
2022/05/06 15:00:22;;;;;;;4.20;3.28;;;;;;;;;;4951002;28;20049;-64
2022/05/06 15:02:48;;;;;;;4.47;3.10;;;;;;;;;;4932979;28;20049;-64
2022/05/06 15:05:13;;;;;;;6.95;3.50;;;;;;;;;;4949438;28;20429;-64
2022/05/06 15:07:38;;;;;;;6.35;3.85;;;;;;;;;;4951402;28;20433;-63
2022/05/06 15:10:04;;;;;;;4.07;2.85;;;;;;;;;;4950724;28;20432;-63
2022/05/06 15:12:30;;;;;;;4.22;3.55;;;;;;;;;;4950791;28;20034;-63
2022/05/06 15:14:56;;;;;;;4.85;3.30;;;;;;;;;;4950325;28;20152;-63
2022/05/06 15:17:21;;;;;;;4.38;3.22;;;;;;;;;;4950417;28;20492;-63
2022/05/06 15:19:47;;;;;;;5.82;3.53;;;;;;;;;;4950894;28;20452;-63
2022/05/06 15:22:14;;;;;;;6.07;2.97;;;;;;;;;;4950780;28;20341;-63
2022/05/06 15:24:39;;;;;;;4.80;3.10;;;;;;;;;;4950273;28;20346;-63
2022/05/06 15:27:05;;;;;;;4.40;3.00;;;;;;;;;;4950331;28;20358;-63